sensor_id;sensor_type;location;lat;lon;timestamp;temperature;humidity
11505;DHT22;5809;53.262;10.408;2023-04-24T00:01:28;12.00;99.90
11505;DHT22;5809;53.262;10.408;2023-04-24T00:03:55;12.00;99.90
11505;DHT22;5809;53.262;10.408;2023-04-24T00:08:58;12.10;99.90
11505;DHT22;5809;53.262;10.408;2023-04-24T00:11:26;12.10;99.90
11505;DHT22;5809;53.262;10.408;2023-04-24T00:13:55;12.00;99.90
11505;DHT22;5809;53.262;10.408;2023-04-24T00:16:22;12.10;99.90
11505;DHT22;5809;53.262;10.408;2023-04-24T00:21:18;12.00;99.90
11505;DHT22;5809;53.262;10.408;2023-04-24T00:23:45;11.90;99.90
11505;DHT22;5809;53.262;10.408;2023-04-24T00:28:54;11.90;99.90
11505;DHT22;5809;53.262;10.408;2023-04-24T00:31:21;11.90;99.90
11505;DHT22;5809;53.262;10.408;2023-04-24T00:36:16;11.90;99.90
11505;DHT22;5809;53.262;10.408;2023-04-24T00:38:45;12.70;99.90
11505;DHT22;5809;53.262;10.408;2023-04-24T00:41:12;12.00;99.90
11505;DHT22;5809;53.262;10.408;2023-04-24T00:43:39;11.90;99.90
11505;DHT22;5809;53.262;10.408;2023-04-24T00:46:07;12.00;99.90
11505;DHT22;5809;53.262;10.408;2023-04-24T00:48:35;12.00;99.90
11505;DHT22;5809;53.262;10.408;2023-04-24T00:53:29;12.00;99.90
11505;DHT22;5809;53.262;10.408;2023-04-24T00:55:56;12.00;99.90
11505;DHT22;5809;53.262;10.408;2023-04-24T00:58:23;12.00;99.90
11505;DHT22;5809;53.262;10.408;2023-04-24T01:00:51;12.00;99.90
11505;DHT22;5809;53.262;10.408;2023-04-24T01:03:21;12.00;99.90
11505;DHT22;5809;53.262;10.408;2023-04-24T01:05:49;12.10;99.90
11505;DHT22;5809;53.262;10.408;2023-04-24T01:08:16;12.00;99.90
11505;DHT22;5809;53.262;10.408;2023-04-24T01:10:44;12.00;99.90
11505;DHT22;5809;53.262;10.408;2023-04-24T01:13:11;12.00;99.90
11505;DHT22;5809;53.262;10.408;2023-04-24T01:15:38;12.00;99.90
11505;DHT22;5809;53.262;10.408;2023-04-24T01:18:05;11.90;99.90
11505;DHT22;5809;53.262;10.408;2023-04-24T01:20:33;11.90;99.90
11505;DHT22;5809;53.262;10.408;2023-04-24T01:23:03;11.80;99.90
11505;DHT22;5809;53.262;10.408;2023-04-24T01:25:30;11.80;99.90
11505;DHT22;5809;53.262;10.408;2023-04-24T01:27:57;11.80;99.90
11505;DHT22;5809;53.262;10.408;2023-04-24T01:30:25;11.70;99.90
11505;DHT22;5809;53.262;10.408;2023-04-24T01:32:52;11.70;99.90
11505;DHT22;5809;53.262;10.408;2023-04-24T01:35:20;13.30;99.90
11505;DHT22;5809;53.262;10.408;2023-04-24T01:40:15;11.60;99.90
11505;DHT22;5809;53.262;10.408;2023-04-24T01:42:42;11.60;99.90
11505;DHT22;5809;53.262;10.408;2023-04-24T01:45:11;11.50;99.90
11505;DHT22;5809;53.262;10.408;2023-04-24T01:47:38;11.50;99.90
11505;DHT22;5809;53.262;10.408;2023-04-24T01:50:06;11.40;99.90
11505;DHT22;5809;53.262;10.408;2023-04-24T01:52:33;11.40;99.90
11505;DHT22;5809;53.262;10.408;2023-04-24T01:55:01;11.40;99.90
11505;DHT22;5809;53.262;10.408;2023-04-24T01:57:30;11.40;99.90
11505;DHT22;5809;53.262;10.408;2023-04-24T01:59:57;11.30;99.90
11505;DHT22;5809;53.262;10.408;2023-04-24T02:02:24;11.30;99.90
11505;DHT22;5809;53.262;10.408;2023-04-24T02:04:53;11.30;99.90
11505;DHT22;5809;53.262;10.408;2023-04-24T02:07:20;11.40;99.90
11505;DHT22;5809;53.262;10.408;2023-04-24T02:09:47;11.40;99.90
11505;DHT22;5809;53.262;10.408;2023-04-24T02:12:15;11.40;99.90
11505;DHT22;5809;53.262;10.408;2023-04-24T02:14:44;11.40;99.90
11505;DHT22;5809;53.262;10.408;2023-04-24T02:24:36;11.30;99.90
11505;DHT22;5809;53.262;10.408;2023-04-24T02:29:30;11.20;99.90
11505;DHT22;5809;53.262;10.408;2023-04-24T02:31:58;11.20;99.90
11505;DHT22;5809;53.262;10.408;2023-04-24T02:34:25;11.20;99.90
11505;DHT22;5809;53.262;10.408;2023-04-24T02:36:52;11.20;99.90
11505;DHT22;5809;53.262;10.408;2023-04-24T02:39:20;11.10;99.90
11505;DHT22;5809;53.262;10.408;2023-04-24T02:44:14;11.20;99.90
11505;DHT22;5809;53.262;10.408;2023-04-24T02:46:42;11.10;99.90
11505;DHT22;5809;53.262;10.408;2023-04-24T02:49:11;11.10;99.90
11505;DHT22;5809;53.262;10.408;2023-04-24T02:51:38;11.20;99.90
11505;DHT22;5809;53.262;10.408;2023-04-24T02:54:07;11.30;99.90
11505;DHT22;5809;53.262;10.408;2023-04-24T02:56:34;11.20;99.90
11505;DHT22;5809;53.262;10.408;2023-04-24T03:01:28;11.10;99.90
11505;DHT22;5809;53.262;10.408;2023-04-24T03:03:55;11.00;99.90
11505;DHT22;5809;53.262;10.408;2023-04-24T03:06:23;11.00;99.90
11505;DHT22;5809;53.262;10.408;2023-04-24T03:08:52;10.90;99.90
11505;DHT22;5809;53.262;10.408;2023-04-24T03:11:19;10.90;99.90
11505;DHT22;5809;53.262;10.408;2023-04-24T03:18:40;10.90;99.90
11505;DHT22;5809;53.262;10.408;2023-04-24T03:21:07;10.80;99.90
11505;DHT22;5809;53.262;10.408;2023-04-24T03:23:35;10.80;99.90
11505;DHT22;5809;53.262;10.408;2023-04-24T03:28:29;10.70;99.90
11505;DHT22;5809;53.262;10.408;2023-04-24T03:33:23;10.60;99.90
11505;DHT22;5809;53.262;10.408;2023-04-24T03:38:18;10.60;99.90
11505;DHT22;5809;53.262;10.408;2023-04-24T03:40:46;10.50;99.90
11505;DHT22;5809;53.262;10.408;2023-04-24T03:43:13;10.40;99.90
11505;DHT22;5809;53.262;10.408;2023-04-24T03:45:40;10.40;99.90
11505;DHT22;5809;53.262;10.408;2023-04-24T03:48:07;10.30;99.90
11505;DHT22;5809;53.262;10.408;2023-04-24T03:50:34;10.20;99.90
11505;DHT22;5809;53.262;10.408;2023-04-24T03:53:01;10.20;99.90
11505;DHT22;5809;53.262;10.408;2023-04-24T03:55:27;10.20;99.90
11505;DHT22;5809;53.262;10.408;2023-04-24T03:57:56;10.20;99.90
11505;DHT22;5809;53.262;10.408;2023-04-24T04:02:51;10.20;99.90
11505;DHT22;5809;53.262;10.408;2023-04-24T04:10:12;10.20;99.90
11505;DHT22;5809;53.262;10.408;2023-04-24T04:15:09;10.10;99.90
11505;DHT22;5809;53.262;10.408;2023-04-24T04:17:36;10.10;99.90
11505;DHT22;5809;53.262;10.408;2023-04-24T04:20:04;10.00;99.90
11505;DHT22;5809;53.262;10.408;2023-04-24T04:22:34;10.00;99.90
11505;DHT22;5809;53.262;10.408;2023-04-24T04:25:01;10.00;99.90
11505;DHT22;5809;53.262;10.408;2023-04-24T04:27:28;9.90;99.90
11505;DHT22;5809;53.262;10.408;2023-04-24T04:29:57;9.90;99.90
11505;DHT22;5809;53.262;10.408;2023-04-24T04:32:26;10.00;99.90
11505;DHT22;5809;53.262;10.408;2023-04-24T04:34:52;10.00;99.90
11505;DHT22;5809;53.262;10.408;2023-04-24T04:39:47;10.00;99.90
11505;DHT22;5809;53.262;10.408;2023-04-24T04:42:14;9.90;99.90
11505;DHT22;5809;53.262;10.408;2023-04-24T04:44:41;10.00;99.90
11505;DHT22;5809;53.262;10.408;2023-04-24T04:47:08;9.90;99.90
11505;DHT22;5809;53.262;10.408;2023-04-24T04:49:37;10.00;99.90
11505;DHT22;5809;53.262;10.408;2023-04-24T04:52:05;10.00;99.90
11505;DHT22;5809;53.262;10.408;2023-04-24T04:54:31;10.00;99.90
11505;DHT22;5809;53.262;10.408;2023-04-24T04:56:58;10.10;99.90
11505;DHT22;5809;53.262;10.408;2023-04-24T04:59:26;10.30;99.90
11505;DHT22;5809;53.262;10.408;2023-04-24T05:01:52;10.40;99.90
11505;DHT22;5809;53.262;10.408;2023-04-24T05:04:19;10.50;99.90
11505;DHT22;5809;53.262;10.408;2023-04-24T05:06:48;10.50;99.90
11505;DHT22;5809;53.262;10.408;2023-04-24T05:09:16;10.50;99.90
11505;DHT22;5809;53.262;10.408;2023-04-24T05:14:10;10.50;99.90
11505;DHT22;5809;53.262;10.408;2023-04-24T05:16:38;10.70;99.90
11505;DHT22;5809;53.262;10.408;2023-04-24T05:21:32;11.20;99.90
11505;DHT22;5809;53.262;10.408;2023-04-24T05:28:56;11.20;99.90
11505;DHT22;5809;53.262;10.408;2023-04-24T05:31:23;11.10;99.90
11505;DHT22;5809;53.262;10.408;2023-04-24T05:33:52;11.40;99.90
11505;DHT22;5809;53.262;10.408;2023-04-24T05:36:19;11.80;99.90
11505;DHT22;5809;53.262;10.408;2023-04-24T05:38:46;12.10;99.90
11505;DHT22;5809;53.262;10.408;2023-04-24T05:41:14;12.40;99.90
11505;DHT22;5809;53.262;10.408;2023-04-24T05:43:41;12.40;99.90
11505;DHT22;5809;53.262;10.408;2023-04-24T05:51:03;13.00;99.90
11505;DHT22;5809;53.262;10.408;2023-04-24T05:53:30;13.10;99.90
11505;DHT22;5809;53.262;10.408;2023-04-24T05:55:57;13.10;99.90
11505;DHT22;5809;53.262;10.408;2023-04-24T06:00:53;12.90;99.90
11505;DHT22;5809;53.262;10.408;2023-04-24T06:05:49;13.20;99.90
11505;DHT22;5809;53.262;10.408;2023-04-24T06:08:16;13.40;99.90
11505;DHT22;5809;53.262;10.408;2023-04-24T06:10:43;13.50;99.90
11505;DHT22;5809;53.262;10.408;2023-04-24T06:15:39;13.50;99.90
11505;DHT22;5809;53.262;10.408;2023-04-24T06:20:35;14.20;99.90
11505;DHT22;5809;53.262;10.408;2023-04-24T06:23:02;14.00;99.90
11505;DHT22;5809;53.262;10.408;2023-04-24T06:27:56;14.40;99.90
11505;DHT22;5809;53.262;10.408;2023-04-24T06:37:46;15.10;99.90
11505;DHT22;5809;53.262;10.408;2023-04-24T06:47:36;15.70;99.90
11505;DHT22;5809;53.262;10.408;2023-04-24T06:50:05;15.80;99.90
11505;DHT22;5809;53.262;10.408;2023-04-24T06:52:32;16.00;99.90
11505;DHT22;5809;53.262;10.408;2023-04-24T06:55:03;16.20;99.90
11505;DHT22;5809;53.262;10.408;2023-04-24T06:57:31;16.20;99.90
11505;DHT22;5809;53.262;10.408;2023-04-24T06:59:58;16.40;99.90
11505;DHT22;5809;53.262;10.408;2023-04-24T07:02:25;16.40;99.90
11505;DHT22;5809;53.262;10.408;2023-04-24T07:04:52;16.50;99.90
11505;DHT22;5809;53.262;10.408;2023-04-24T07:07:20;16.70;99.90
11505;DHT22;5809;53.262;10.408;2023-04-24T07:09:49;16.60;99.90
11505;DHT22;5809;53.262;10.408;2023-04-24T07:12:16;16.30;99.90
11505;DHT22;5809;53.262;10.408;2023-04-24T07:14:46;16.40;99.90
11505;DHT22;5809;53.262;10.408;2023-04-24T07:17:12;16.50;99.90
11505;DHT22;5809;53.262;10.408;2023-04-24T07:19:40;16.40;99.90
11505;DHT22;5809;53.262;10.408;2023-04-24T07:22:07;16.40;99.90
11505;DHT22;5809;53.262;10.408;2023-04-24T07:24:35;16.50;99.90
11505;DHT22;5809;53.262;10.408;2023-04-24T07:27:02;16.90;99.90
11505;DHT22;5809;53.262;10.408;2023-04-24T07:29:29;16.80;99.90
11505;DHT22;5809;53.262;10.408;2023-04-24T07:31:56;16.50;99.90
11505;DHT22;5809;53.262;10.408;2023-04-24T07:36:50;14.90;99.90
11505;DHT22;5809;53.262;10.408;2023-04-24T07:39:18;14.50;99.90
11505;DHT22;5809;53.262;10.408;2023-04-24T07:44:13;14.30;99.90
11505;DHT22;5809;53.262;10.408;2023-04-24T07:49:08;14.70;99.90
11505;DHT22;5809;53.262;10.408;2023-04-24T07:51:35;14.70;99.90
11505;DHT22;5809;53.262;10.408;2023-04-24T07:54:03;15.70;99.90
11505;DHT22;5809;53.262;10.408;2023-04-24T07:56:31;15.70;99.90
11505;DHT22;5809;53.262;10.408;2023-04-24T08:01:27;15.90;99.90
11505;DHT22;5809;53.262;10.408;2023-04-24T08:03:54;16.10;99.90
11505;DHT22;5809;53.262;10.408;2023-04-24T08:06:21;16.50;99.90
11505;DHT22;5809;53.262;10.408;2023-04-24T08:08:48;17.20;99.90
11505;DHT22;5809;53.262;10.408;2023-04-24T08:11:17;19.30;99.90
11505;DHT22;5809;53.262;10.408;2023-04-24T08:13:43;16.50;99.90
11505;DHT22;5809;53.262;10.408;2023-04-24T08:16:12;16.00;99.90
11505;DHT22;5809;53.262;10.408;2023-04-24T08:18:39;16.00;99.90
11505;DHT22;5809;53.262;10.408;2023-04-24T08:21:06;15.90;99.90
11505;DHT22;5809;53.262;10.408;2023-04-24T08:23:33;15.80;99.90
11505;DHT22;5809;53.262;10.408;2023-04-24T08:30:55;16.80;99.90
11505;DHT22;5809;53.262;10.408;2023-04-24T08:33:24;16.90;99.90
11505;DHT22;5809;53.262;10.408;2023-04-24T08:35:51;17.00;99.90
11505;DHT22;5809;53.262;10.408;2023-04-24T08:38:18;17.20;99.90
11505;DHT22;5809;53.262;10.408;2023-04-24T08:40:44;17.60;99.90
11505;DHT22;5809;53.262;10.408;2023-04-24T08:43:15;17.90;99.90
11505;DHT22;5809;53.262;10.408;2023-04-24T08:45:42;16.30;99.90
11505;DHT22;5809;53.262;10.408;2023-04-24T08:53:07;14.80;99.90
11505;DHT22;5809;53.262;10.408;2023-04-24T08:55:35;14.80;99.90
11505;DHT22;5809;53.262;10.408;2023-04-24T08:58:02;14.70;99.90
11505;DHT22;5809;53.262;10.408;2023-04-24T09:00:29;14.70;99.90
11505;DHT22;5809;53.262;10.408;2023-04-24T09:02:57;14.80;99.90
11505;DHT22;5809;53.262;10.408;2023-04-24T09:05:24;14.80;99.90
11505;DHT22;5809;53.262;10.408;2023-04-24T09:07:54;15.00;99.90
11505;DHT22;5809;53.262;10.408;2023-04-24T09:10:23;15.00;99.90
11505;DHT22;5809;53.262;10.408;2023-04-24T09:12:50;14.70;99.90
11505;DHT22;5809;53.262;10.408;2023-04-24T09:15:18;14.60;99.90
11505;DHT22;5809;53.262;10.408;2023-04-24T09:20:13;13.80;99.90
11505;DHT22;5809;53.262;10.408;2023-04-24T09:22:40;14.00;99.90
11505;DHT22;5809;53.262;10.408;2023-04-24T09:25:10;14.00;99.90
11505;DHT22;5809;53.262;10.408;2023-04-24T09:27:41;14.30;99.90
11505;DHT22;5809;53.262;10.408;2023-04-24T09:30:09;14.20;99.90
11505;DHT22;5809;53.262;10.408;2023-04-24T09:32:36;13.80;99.90
11505;DHT22;5809;53.262;10.408;2023-04-24T09:35:11;13.80;99.90
11505;DHT22;5809;53.262;10.408;2023-04-24T09:37:40;11.00;99.90
11505;DHT22;5809;53.262;10.408;2023-04-24T09:40:26;15.10;99.90
11505;DHT22;5809;53.262;10.408;2023-04-24T09:42:54;15.30;99.90
11505;DHT22;5809;53.262;10.408;2023-04-24T09:45:22;15.30;99.90
11505;DHT22;5809;53.262;10.408;2023-04-24T09:47:55;14.80;99.90
11505;DHT22;5809;53.262;10.408;2023-04-24T09:50:23;14.60;99.90
11505;DHT22;5809;53.262;10.408;2023-04-24T09:52:57;14.40;99.90
11505;DHT22;5809;53.262;10.408;2023-04-24T09:55:26;14.20;99.90
11505;DHT22;5809;53.262;10.408;2023-04-24T09:57:54;14.30;99.90
11505;DHT22;5809;53.262;10.408;2023-04-24T10:00:23;14.10;99.90
11505;DHT22;5809;53.262;10.408;2023-04-24T10:05:19;15.10;99.90
11505;DHT22;5809;53.262;10.408;2023-04-24T10:07:49;15.80;99.90
11505;DHT22;5809;53.262;10.408;2023-04-24T10:12:45;15.80;99.90
11505;DHT22;5809;53.262;10.408;2023-04-24T10:15:13;15.60;99.90
11505;DHT22;5809;53.262;10.408;2023-04-24T10:22:36;15.30;99.90
11505;DHT22;5809;53.262;10.408;2023-04-24T10:25:04;15.60;99.90
11505;DHT22;5809;53.262;10.408;2023-04-24T10:27:32;16.80;99.90
11505;DHT22;5809;53.262;10.408;2023-04-24T10:30:02;16.40;99.90
11505;DHT22;5809;53.262;10.408;2023-04-24T10:37:25;15.70;99.90
11505;DHT22;5809;53.262;10.408;2023-04-24T10:39:53;15.60;99.90
11505;DHT22;5809;53.262;10.408;2023-04-24T10:42:20;15.80;99.90
11505;DHT22;5809;53.262;10.408;2023-04-24T10:47:16;15.10;99.90
11505;DHT22;5809;53.262;10.408;2023-04-24T10:49:43;14.70;99.90
11505;DHT22;5809;53.262;10.408;2023-04-24T10:52:10;14.40;99.90
11505;DHT22;5809;53.262;10.408;2023-04-24T10:54:42;14.30;99.90
11505;DHT22;5809;53.262;10.408;2023-04-24T10:57:27;14.00;99.90
11505;DHT22;5809;53.262;10.408;2023-04-24T11:00:18;15.20;99.90
11505;DHT22;5809;53.262;10.408;2023-04-24T11:02:47;15.40;99.90
11505;DHT22;5809;53.262;10.408;2023-04-24T11:05:17;16.90;99.90
11505;DHT22;5809;53.262;10.408;2023-04-24T11:08:12;18.10;99.90
11505;DHT22;5809;53.262;10.408;2023-04-24T11:10:40;17.10;99.90
11505;DHT22;5809;53.262;10.408;2023-04-24T11:18:03;14.20;99.90
11505;DHT22;5809;53.262;10.408;2023-04-24T11:20:30;14.10;99.90
11505;DHT22;5809;53.262;10.408;2023-04-24T11:23:03;14.10;99.90
11505;DHT22;5809;53.262;10.408;2023-04-24T11:25:32;14.30;99.90
11505;DHT22;5809;53.262;10.408;2023-04-24T11:28:03;14.70;99.90
11505;DHT22;5809;53.262;10.408;2023-04-24T11:30:32;15.00;99.90
11505;DHT22;5809;53.262;10.408;2023-04-24T11:33:04;15.60;99.90
11505;DHT22;5809;53.262;10.408;2023-04-24T11:35:35;15.20;99.90
11505;DHT22;5809;53.262;10.408;2023-04-24T11:38:06;14.60;99.90
11505;DHT22;5809;53.262;10.408;2023-04-24T11:40:34;14.50;99.90
11505;DHT22;5809;53.262;10.408;2023-04-24T11:43:01;14.60;99.90
11505;DHT22;5809;53.262;10.408;2023-04-24T11:45:29;14.80;99.90
11505;DHT22;5809;53.262;10.408;2023-04-24T11:47:56;15.00;99.90
11505;DHT22;5809;53.262;10.408;2023-04-24T11:50:27;15.30;99.90
11505;DHT22;5809;53.262;10.408;2023-04-24T11:52:55;15.80;99.90
11505;DHT22;5809;53.262;10.408;2023-04-24T11:55:24;15.30;99.90
11505;DHT22;5809;53.262;10.408;2023-04-24T11:57:54;15.20;99.90
11505;DHT22;5809;53.262;10.408;2023-04-24T12:00:22;15.00;99.90
11505;DHT22;5809;53.262;10.408;2023-04-24T12:05:21;14.30;99.90
11505;DHT22;5809;53.262;10.408;2023-04-24T12:07:49;11.10;99.90
11505;DHT22;5809;53.262;10.408;2023-04-24T12:10:20;13.50;99.90
11505;DHT22;5809;53.262;10.408;2023-04-24T12:12:47;13.50;99.90
11505;DHT22;5809;53.262;10.408;2023-04-24T12:15:16;13.70;99.90
11505;DHT22;5809;53.262;10.408;2023-04-24T12:17:44;14.00;99.90
11505;DHT22;5809;53.262;10.408;2023-04-24T12:20:12;14.40;99.90
11505;DHT22;5809;53.262;10.408;2023-04-24T12:22:46;14.50;99.90
11505;DHT22;5809;53.262;10.408;2023-04-24T12:25:15;14.70;99.90
11505;DHT22;5809;53.262;10.408;2023-04-24T12:27:43;15.10;99.90
11505;DHT22;5809;53.262;10.408;2023-04-24T12:30:12;15.40;99.90
11505;DHT22;5809;53.262;10.408;2023-04-24T12:32:43;15.50;99.90
11505;DHT22;5809;53.262;10.408;2023-04-24T12:35:10;15.50;99.90
11505;DHT22;5809;53.262;10.408;2023-04-24T12:40:06;15.20;99.90
11505;DHT22;5809;53.262;10.408;2023-04-24T12:42:37;14.70;99.90
11505;DHT22;5809;53.262;10.408;2023-04-24T12:45:08;14.50;99.90
11505;DHT22;5809;53.262;10.408;2023-04-24T12:47:38;14.70;99.90
11505;DHT22;5809;53.262;10.408;2023-04-24T12:50:06;14.50;99.90
11505;DHT22;5809;53.262;10.408;2023-04-24T12:52:33;14.40;99.90
11505;DHT22;5809;53.262;10.408;2023-04-24T12:55:01;14.10;99.90
11505;DHT22;5809;53.262;10.408;2023-04-24T12:57:29;13.70;99.90
11505;DHT22;5809;53.262;10.408;2023-04-24T12:59:58;13.50;99.90
11505;DHT22;5809;53.262;10.408;2023-04-24T13:02:27;13.20;99.90
11505;DHT22;5809;53.262;10.408;2023-04-24T13:04:55;13.00;99.90
11505;DHT22;5809;53.262;10.408;2023-04-24T13:07:22;13.00;99.90
11505;DHT22;5809;53.262;10.408;2023-04-24T13:09:50;12.80;99.90
11505;DHT22;5809;53.262;10.408;2023-04-24T13:12:18;12.90;99.90
11505;DHT22;5809;53.262;10.408;2023-04-24T13:14:45;12.90;99.90
11505;DHT22;5809;53.262;10.408;2023-04-24T13:17:14;12.90;99.90
11505;DHT22;5809;53.262;10.408;2023-04-24T13:19:41;12.90;99.90
11505;DHT22;5809;53.262;10.408;2023-04-24T13:22:09;12.80;99.90
11505;DHT22;5809;53.262;10.408;2023-04-24T13:24:37;12.70;99.90
11505;DHT22;5809;53.262;10.408;2023-04-24T13:32:00;12.70;99.90
11505;DHT22;5809;53.262;10.408;2023-04-24T13:34:28;12.60;99.90
11505;DHT22;5809;53.262;10.408;2023-04-24T13:36:56;12.70;99.90
11505;DHT22;5809;53.262;10.408;2023-04-24T13:39:24;12.80;99.90
11505;DHT22;5809;53.262;10.408;2023-04-24T13:41:51;13.10;99.90
11505;DHT22;5809;53.262;10.408;2023-04-24T13:44:19;13.40;99.90
11505;DHT22;5809;53.262;10.408;2023-04-24T13:46:50;13.60;99.90
11505;DHT22;5809;53.262;10.408;2023-04-24T13:49:20;14.10;99.90
11505;DHT22;5809;53.262;10.408;2023-04-24T13:54:15;14.00;99.90
11505;DHT22;5809;53.262;10.408;2023-04-24T13:56:42;13.70;99.90
11505;DHT22;5809;53.262;10.408;2023-04-24T13:59:09;13.70;99.90
11505;DHT22;5809;53.262;10.408;2023-04-24T14:01:36;13.80;99.90
11505;DHT22;5809;53.262;10.408;2023-04-24T14:06:30;13.30;99.90
11505;DHT22;5809;53.262;10.408;2023-04-24T14:11:26;12.90;99.90
11505;DHT22;5809;53.262;10.408;2023-04-24T14:13:54;12.90;99.90
11505;DHT22;5809;53.262;10.408;2023-04-24T14:18:49;12.80;99.90
11505;DHT22;5809;53.262;10.408;2023-04-24T14:21:16;12.60;99.90
11505;DHT22;5809;53.262;10.408;2023-04-24T14:23:43;12.50;99.90
11505;DHT22;5809;53.262;10.408;2023-04-24T14:26:12;12.50;99.90
11505;DHT22;5809;53.262;10.408;2023-04-24T14:31:06;12.60;99.90
11505;DHT22;5809;53.262;10.408;2023-04-24T14:33:33;12.60;99.90
11505;DHT22;5809;53.262;10.408;2023-04-24T14:36:00;12.70;99.90
11505;DHT22;5809;53.262;10.408;2023-04-24T14:40:55;12.70;99.90
11505;DHT22;5809;53.262;10.408;2023-04-24T14:43:23;12.60;99.90
11505;DHT22;5809;53.262;10.408;2023-04-24T14:45:51;12.40;99.90
11505;DHT22;5809;53.262;10.408;2023-04-24T14:50:45;12.00;99.90
11505;DHT22;5809;53.262;10.408;2023-04-24T14:53:12;11.70;99.90
11505;DHT22;5809;53.262;10.408;2023-04-24T14:58:06;11.50;99.90
11505;DHT22;5809;53.262;10.408;2023-04-24T15:00:34;11.40;99.90
11505;DHT22;5809;53.262;10.408;2023-04-24T15:12:51;10.60;99.90
11505;DHT22;5809;53.262;10.408;2023-04-24T15:15:18;10.50;99.90
11505;DHT22;5809;53.262;10.408;2023-04-24T15:17:46;10.40;99.90
11505;DHT22;5809;53.262;10.408;2023-04-24T15:22:40;10.30;99.90
11505;DHT22;5809;53.262;10.408;2023-04-24T15:27:41;10.30;99.90
11505;DHT22;5809;53.262;10.408;2023-04-24T15:35:06;9.30;99.90
11505;DHT22;5809;53.262;10.408;2023-04-24T15:37:33;9.90;99.90
11505;DHT22;5809;53.262;10.408;2023-04-24T15:42:29;9.70;99.90
11505;DHT22;5809;53.262;10.408;2023-04-24T15:47:24;9.50;99.90
11505;DHT22;5809;53.262;10.408;2023-04-24T15:54:47;9.60;99.90
11505;DHT22;5809;53.262;10.408;2023-04-24T15:59:41;9.40;99.90
11505;DHT22;5809;53.262;10.408;2023-04-24T16:02:09;9.20;99.90
11505;DHT22;5809;53.262;10.408;2023-04-24T16:04:37;8.90;99.90
11505;DHT22;5809;53.262;10.408;2023-04-24T16:09:33;8.40;99.90
11505;DHT22;5809;53.262;10.408;2023-04-24T16:14:28;8.10;99.90
11505;DHT22;5809;53.262;10.408;2023-04-24T16:24:19;7.90;99.90
11505;DHT22;5809;53.262;10.408;2023-04-24T16:26:48;7.90;99.90
11505;DHT22;5809;53.262;10.408;2023-04-24T16:31:42;7.90;99.90
11505;DHT22;5809;53.262;10.408;2023-04-24T16:36:36;7.80;99.90
11505;DHT22;5809;53.262;10.408;2023-04-24T16:43:59;7.70;99.90
11505;DHT22;5809;53.262;10.408;2023-04-24T16:51:21;7.80;99.90
11505;DHT22;5809;53.262;10.408;2023-04-24T16:56:15;7.80;99.90
11505;DHT22;5809;53.262;10.408;2023-04-24T17:01:10;7.80;99.90
11505;DHT22;5809;53.262;10.408;2023-04-24T17:06:06;7.80;99.90
11505;DHT22;5809;53.262;10.408;2023-04-24T17:13:27;7.70;99.90
11505;DHT22;5809;53.262;10.408;2023-04-24T17:15:55;7.70;99.90
11505;DHT22;5809;53.262;10.408;2023-04-24T17:18:23;7.70;99.90
11505;DHT22;5809;53.262;10.408;2023-04-24T17:28:19;7.60;99.90
11505;DHT22;5809;53.262;10.408;2023-04-24T17:38:12;7.70;99.90
11505;DHT22;5809;53.262;10.408;2023-04-24T17:43:06;7.70;99.90
11505;DHT22;5809;53.262;10.408;2023-04-24T17:50:29;7.60;99.90
11505;DHT22;5809;53.262;10.408;2023-04-24T17:55:25;7.60;99.90
11505;DHT22;5809;53.262;10.408;2023-04-24T18:02:46;7.70;99.90
11505;DHT22;5809;53.262;10.408;2023-04-24T18:07:41;7.70;99.90
11505;DHT22;5809;53.262;10.408;2023-04-24T18:10:10;7.60;99.90
11505;DHT22;5809;53.262;10.408;2023-04-24T18:19:59;7.70;99.90
11505;DHT22;5809;53.262;10.408;2023-04-24T18:24:53;7.70;99.90
11505;DHT22;5809;53.262;10.408;2023-04-24T18:27:22;7.80;99.90
11505;DHT22;5809;53.262;10.408;2023-04-24T18:29:50;7.70;99.90
11505;DHT22;5809;53.262;10.408;2023-04-24T18:32:17;7.80;99.90
11505;DHT22;5809;53.262;10.408;2023-04-24T18:34:44;7.80;99.90
11505;DHT22;5809;53.262;10.408;2023-04-24T18:37:11;7.80;99.90
11505;DHT22;5809;53.262;10.408;2023-04-24T18:39:38;7.80;99.90
11505;DHT22;5809;53.262;10.408;2023-04-24T18:44:33;7.80;99.90
11505;DHT22;5809;53.262;10.408;2023-04-24T18:54:25;7.90;99.90
11505;DHT22;5809;53.262;10.408;2023-04-24T19:01:48;8.00;99.90
11505;DHT22;5809;53.262;10.408;2023-04-24T19:04:14;8.10;99.90
11505;DHT22;5809;53.262;10.408;2023-04-24T19:14:04;8.10;99.90
11505;DHT22;5809;53.262;10.408;2023-04-24T19:16:32;8.10;99.90
11505;DHT22;5809;53.262;10.408;2023-04-24T19:19:00;8.10;99.90
11505;DHT22;5809;53.262;10.408;2023-04-24T19:23:54;8.20;99.90
11505;DHT22;5809;53.262;10.408;2023-04-24T19:31:18;8.10;99.90
11505;DHT22;5809;53.262;10.408;2023-04-24T19:33:45;8.10;99.90
11505;DHT22;5809;53.262;10.408;2023-04-24T19:36:15;8.10;99.90
11505;DHT22;5809;53.262;10.408;2023-04-24T19:41:09;8.10;99.90
11505;DHT22;5809;53.262;10.408;2023-04-24T19:46:04;8.10;99.90
11505;DHT22;5809;53.262;10.408;2023-04-24T19:50:58;8.10;99.90
11505;DHT22;5809;53.262;10.408;2023-04-24T19:53:27;8.10;99.90
11505;DHT22;5809;53.262;10.408;2023-04-24T20:03:16;8.20;99.90
11505;DHT22;5809;53.262;10.408;2023-04-24T20:10:39;8.20;99.90
11505;DHT22;5809;53.262;10.408;2023-04-24T20:13:06;8.20;99.90
11505;DHT22;5809;53.262;10.408;2023-04-24T20:15:33;8.20;99.90
11505;DHT22;5809;53.262;10.408;2023-04-24T20:25:21;8.10;99.90
11505;DHT22;5809;53.262;10.408;2023-04-24T20:27:49;8.10;99.90
11505;DHT22;5809;53.262;10.408;2023-04-24T20:35:11;8.10;99.90
11505;DHT22;5809;53.262;10.408;2023-04-24T20:40:06;8.10;99.90
11505;DHT22;5809;53.262;10.408;2023-04-24T20:45:05;8.10;99.90
11505;DHT22;5809;53.262;10.408;2023-04-24T20:50:00;8.10;99.90
11505;DHT22;5809;53.262;10.408;2023-04-24T20:54:55;8.10;99.90
11505;DHT22;5809;53.262;10.408;2023-04-24T20:59:50;8.00;99.90
11505;DHT22;5809;53.262;10.408;2023-04-24T21:02:20;8.00;99.90
11505;DHT22;5809;53.262;10.408;2023-04-24T21:09:42;8.00;99.90
11505;DHT22;5809;53.262;10.408;2023-04-24T21:14:36;8.00;99.90
11505;DHT22;5809;53.262;10.408;2023-04-24T21:19:31;8.00;99.90
11505;DHT22;5809;53.262;10.408;2023-04-24T21:21:58;8.00;99.90
11505;DHT22;5809;53.262;10.408;2023-04-24T21:31:47;8.10;99.90
11505;DHT22;5809;53.262;10.408;2023-04-24T21:34:14;8.10;99.90
11505;DHT22;5809;53.262;10.408;2023-04-24T21:36:42;8.10;99.90
11505;DHT22;5809;53.262;10.408;2023-04-24T21:39:10;8.10;99.90
11505;DHT22;5809;53.262;10.408;2023-04-24T21:44:04;8.00;99.90
11505;DHT22;5809;53.262;10.408;2023-04-24T21:46:31;8.00;99.90
11505;DHT22;5809;53.262;10.408;2023-04-24T21:51:25;7.90;99.90
11505;DHT22;5809;53.262;10.408;2023-04-24T21:53:54;7.90;99.90
11505;DHT22;5809;53.262;10.408;2023-04-24T21:56:21;7.80;99.90
11505;DHT22;5809;53.262;10.408;2023-04-24T22:06:09;7.50;99.90